sensor_id;sensor_type;location;lat;lon;timestamp;pressure;altitude;pressure_sealevel;temperature;humidity
64632;BME280;58358;50.936;0.246;2023-04-24T00:00:41;99962.65;;;5.48;93.73
64632;BME280;58358;50.936;0.246;2023-04-24T00:03:06;99961.15;;;5.30;94.60
64632;BME280;58358;50.936;0.246;2023-04-24T00:05:31;99965.64;;;6.54;89.53
64632;BME280;58358;50.936;0.246;2023-04-24T00:07:57;99970.94;;;6.33;89.11
64632;BME280;58358;50.936;0.246;2023-04-24T00:10:22;99975.94;;;6.87;88.14
64632;BME280;58358;50.936;0.246;2023-04-24T00:12:48;99984.97;;;6.46;89.64
64632;BME280;58358;50.936;0.246;2023-04-24T00:15:13;99986.41;;;5.48;93.33
64632;BME280;58358;50.936;0.246;2023-04-24T00:17:39;99990.13;;;6.14;92.15
64632;BME280;58358;50.936;0.246;2023-04-24T00:20:06;99991.17;;;5.84;93.63
64632;BME280;58358;50.936;0.246;2023-04-24T00:22:31;99994.05;;;6.21;93.54
64632;BME280;58358;50.936;0.246;2023-04-24T00:24:56;99995.88;;;5.80;93.84
64632;BME280;58358;50.936;0.246;2023-04-24T00:27:21;100000.42;;;5.46;94.93
64632;BME280;58358;50.936;0.246;2023-04-24T00:29:47;99998.11;;;6.09;95.79
64632;BME280;58358;50.936;0.246;2023-04-24T00:32:12;100003.42;;;5.72;96.09
64632;BME280;58358;50.936;0.246;2023-04-24T00:34:38;100000.97;;;6.01;95.45
64632;BME280;58358;50.936;0.246;2023-04-24T00:37:04;100004.84;;;5.43;100.00
64632;BME280;58358;50.936;0.246;2023-04-24T00:39:29;100007.62;;;5.47;99.76
64632;BME280;58358;50.936;0.246;2023-04-24T00:41:56;100012.60;;;5.82;99.62
64632;BME280;58358;50.936;0.246;2023-04-24T00:44:21;100013.74;;;5.54;98.37
64632;BME280;58358;50.936;0.246;2023-04-24T00:46:52;100011.35;;;6.18;97.33
64632;BME280;58358;50.936;0.246;2023-04-24T00:49:12;100004.41;;;5.54;96.56
64632;BME280;58358;50.936;0.246;2023-04-24T00:51:38;100002.09;;;7.09;92.54
64632;BME280;58358;50.936;0.246;2023-04-24T00:54:04;100006.11;;;6.44;93.58
64632;BME280;58358;50.936;0.246;2023-04-24T00:56:30;100006.27;;;6.94;91.03
64632;BME280;58358;50.936;0.246;2023-04-24T00:58:55;100007.95;;;5.74;94.37
64632;BME280;58358;50.936;0.246;2023-04-24T01:01:21;100015.80;;;6.10;94.67
64632;BME280;58358;50.936;0.246;2023-04-24T01:03:47;100020.25;;;6.34;92.77
64632;BME280;58358;50.936;0.246;2023-04-24T01:06:12;100020.32;;;6.73;91.39
64632;BME280;58358;50.936;0.246;2023-04-24T01:08:38;100021.57;;;6.24;92.75
64632;BME280;58358;50.936;0.246;2023-04-24T01:11:04;100026.01;;;6.05;93.01
64632;BME280;58358;50.936;0.246;2023-04-24T01:13:29;100036.05;;;6.68;89.94
64632;BME280;58358;50.936;0.246;2023-04-24T01:15:54;100034.67;;;6.99;87.84
64632;BME280;58358;50.936;0.246;2023-04-24T01:18:19;100037.10;;;6.75;87.16
64632;BME280;58358;50.936;0.246;2023-04-24T01:20:46;100034.40;;;7.22;84.58
64632;BME280;58358;50.936;0.246;2023-04-24T01:23:10;100042.90;;;7.22;84.56
64632;BME280;58358;50.936;0.246;2023-04-24T01:25:36;100049.97;;;7.55;83.05
64632;BME280;58358;50.936;0.246;2023-04-24T01:28:01;100052.81;;;6.83;85.31
64632;BME280;58358;50.936;0.246;2023-04-24T01:30:28;100060.24;;;6.65;87.65
64632;BME280;58358;50.936;0.246;2023-04-24T01:32:53;100062.13;;;6.29;88.86
64632;BME280;58358;50.936;0.246;2023-04-24T01:35:18;100059.51;;;6.29;89.94
64632;BME280;58358;50.936;0.246;2023-04-24T01:37:44;100059.74;;;5.73;92.42
64632;BME280;58358;50.936;0.246;2023-04-24T01:40:10;100063.63;;;6.01;91.11
64632;BME280;58358;50.936;0.246;2023-04-24T01:42:35;100067.09;;;6.71;89.48
64632;BME280;58358;50.936;0.246;2023-04-24T01:45:02;100070.18;;;6.82;88.41
64632;BME280;58358;50.936;0.246;2023-04-24T01:47:26;100068.21;;;6.54;90.53
64632;BME280;58358;50.936;0.246;2023-04-24T01:49:51;100075.32;;;6.57;89.75
64632;BME280;58358;50.936;0.246;2023-04-24T01:52:17;100074.10;;;6.18;89.93
64632;BME280;58358;50.936;0.246;2023-04-24T01:54:42;100074.97;;;5.93;89.60
64632;BME280;58358;50.936;0.246;2023-04-24T01:57:08;100077.99;;;6.81;87.41
64632;BME280;58358;50.936;0.246;2023-04-24T01:59:33;100074.82;;;6.67;86.81
64632;BME280;58358;50.936;0.246;2023-04-24T02:01:59;100074.23;;;6.44;86.81
64632;BME280;58358;50.936;0.246;2023-04-24T02:04:24;100073.88;;;6.97;84.97
64632;BME280;58358;50.936;0.246;2023-04-24T02:06:49;100075.16;;;7.48;82.63
64632;BME280;58358;50.936;0.246;2023-04-24T02:09:15;100078.77;;;7.33;82.33
64632;BME280;58358;50.936;0.246;2023-04-24T02:11:40;100079.48;;;6.97;82.57
64632;BME280;58358;50.936;0.246;2023-04-24T02:14:06;100083.32;;;4.74;88.11
64632;BME280;58358;50.936;0.246;2023-04-24T02:16:31;100085.45;;;6.23;87.95
64632;BME280;58358;50.936;0.246;2023-04-24T02:18:58;100085.32;;;5.15;91.73
64632;BME280;58358;50.936;0.246;2023-04-24T02:21:22;100076.02;;;6.44;88.58
64632;BME280;58358;50.936;0.246;2023-04-24T02:23:47;100075.17;;;7.22;84.32
64632;BME280;58358;50.936;0.246;2023-04-24T02:26:13;100085.03;;;6.91;84.94
64632;BME280;58358;50.936;0.246;2023-04-24T02:28:39;100084.67;;;7.89;81.70
64632;BME280;58358;50.936;0.246;2023-04-24T02:31:04;100081.73;;;8.41;79.13
64632;BME280;58358;50.936;0.246;2023-04-24T02:33:30;100076.83;;;8.10;77.66
64632;BME280;58358;50.936;0.246;2023-04-24T02:35:55;100079.86;;;7.49;79.01
64632;BME280;58358;50.936;0.246;2023-04-24T02:38:20;100093.00;;;6.63;80.81
64632;BME280;58358;50.936;0.246;2023-04-24T02:40:46;100101.14;;;7.01;81.19
64632;BME280;58358;50.936;0.246;2023-04-24T02:43:12;100100.08;;;7.26;80.17
64632;BME280;58358;50.936;0.246;2023-04-24T02:45:37;100101.16;;;6.99;79.59
64632;BME280;58358;50.936;0.246;2023-04-24T02:48:03;100096.40;;;7.12;80.36
64632;BME280;58358;50.936;0.246;2023-04-24T02:50:28;100099.99;;;6.51;80.21
64632;BME280;58358;50.936;0.246;2023-04-24T02:52:53;100100.79;;;6.77;80.98
64632;BME280;58358;50.936;0.246;2023-04-24T02:55:19;100107.89;;;6.96;80.35
64632;BME280;58358;50.936;0.246;2023-04-24T02:57:45;100114.00;;;6.01;83.08
64632;BME280;58358;50.936;0.246;2023-04-24T03:00:11;100114.75;;;5.84;83.00
64632;BME280;58358;50.936;0.246;2023-04-24T03:02:36;100115.31;;;6.49;82.67
64632;BME280;58358;50.936;0.246;2023-04-24T03:05:01;100114.97;;;6.09;83.32
64632;BME280;58358;50.936;0.246;2023-04-24T03:07:26;100123.85;;;6.54;81.87
64632;BME280;58358;50.936;0.246;2023-04-24T03:09:52;100125.52;;;7.05;79.89
64632;BME280;58358;50.936;0.246;2023-04-24T03:12:18;100127.94;;;6.58;79.83
64632;BME280;58358;50.936;0.246;2023-04-24T03:14:43;100130.01;;;6.90;79.79
64632;BME280;58358;50.936;0.246;2023-04-24T03:17:09;100127.59;;;5.90;83.41
64632;BME280;58358;50.936;0.246;2023-04-24T03:19:34;100129.11;;;6.28;81.35
64632;BME280;58358;50.936;0.246;2023-04-24T03:21:59;100134.86;;;5.40;85.59
64632;BME280;58358;50.936;0.246;2023-04-24T03:24:24;100132.51;;;5.18;88.37
64632;BME280;58358;50.936;0.246;2023-04-24T03:26:49;100134.58;;;4.85;89.44
64632;BME280;58358;50.936;0.246;2023-04-24T03:29:15;100133.73;;;5.36;87.61
64632;BME280;58358;50.936;0.246;2023-04-24T03:31:40;100135.79;;;5.46;87.29
64632;BME280;58358;50.936;0.246;2023-04-24T03:34:06;100142.41;;;5.30;86.24
64632;BME280;58358;50.936;0.246;2023-04-24T03:36:31;100143.56;;;5.53;87.40
64632;BME280;58358;50.936;0.246;2023-04-24T03:38:56;100146.21;;;5.10;88.10
64632;BME280;58358;50.936;0.246;2023-04-24T03:41:22;100152.53;;;4.81;88.55
64632;BME280;58358;50.936;0.246;2023-04-24T03:43:47;100157.00;;;4.83;90.95
64632;BME280;58358;50.936;0.246;2023-04-24T03:46:13;100162.33;;;5.01;91.65
64632;BME280;58358;50.936;0.246;2023-04-24T03:48:38;100163.27;;;4.23;90.97
64632;BME280;58358;50.936;0.246;2023-04-24T03:51:04;100165.23;;;5.22;89.39
64632;BME280;58358;50.936;0.246;2023-04-24T03:53:29;100165.10;;;5.58;87.06
64632;BME280;58358;50.936;0.246;2023-04-24T03:55:55;100173.88;;;5.70;86.09
64632;BME280;58358;50.936;0.246;2023-04-24T03:58:20;100179.94;;;4.88;89.72
64632;BME280;58358;50.936;0.246;2023-04-24T04:00:45;100182.84;;;4.73;89.80
64632;BME280;58358;50.936;0.246;2023-04-24T04:03:11;100182.64;;;5.66;87.13
64632;BME280;58358;50.936;0.246;2023-04-24T04:05:36;100191.02;;;5.43;88.01
64632;BME280;58358;50.936;0.246;2023-04-24T04:08:02;100195.17;;;5.90;87.23
64632;BME280;58358;50.936;0.246;2023-04-24T04:10:28;100198.25;;;5.26;88.77
64632;BME280;58358;50.936;0.246;2023-04-24T04:12:53;100198.74;;;5.06;88.92
64632;BME280;58358;50.936;0.246;2023-04-24T04:15:19;100202.52;;;5.18;88.12
64632;BME280;58358;50.936;0.246;2023-04-24T04:17:45;100201.86;;;5.71;86.86
64632;BME280;58358;50.936;0.246;2023-04-24T04:20:11;100206.97;;;5.32;88.68
64632;BME280;58358;50.936;0.246;2023-04-24T04:22:36;100208.93;;;4.53;90.52
64632;BME280;58358;50.936;0.246;2023-04-24T04:25:01;100212.33;;;4.18;90.74
64632;BME280;58358;50.936;0.246;2023-04-24T04:27:27;100216.90;;;4.88;90.82
64632;BME280;58358;50.936;0.246;2023-04-24T04:29:53;100220.81;;;6.05;87.05
64632;BME280;58358;50.936;0.246;2023-04-24T04:32:18;100222.85;;;5.73;87.12
64632;BME280;58358;50.936;0.246;2023-04-24T04:34:43;100224.75;;;6.07;85.92
64632;BME280;58358;50.936;0.246;2023-04-24T04:37:09;100226.91;;;5.73;86.53
64632;BME280;58358;50.936;0.246;2023-04-24T04:39:35;100232.52;;;5.97;85.40
64632;BME280;58358;50.936;0.246;2023-04-24T04:42:00;100241.41;;;5.39;87.72
64632;BME280;58358;50.936;0.246;2023-04-24T04:44:26;100245.91;;;5.56;89.11
64632;BME280;58358;50.936;0.246;2023-04-24T04:46:51;100242.89;;;5.71;88.37
64632;BME280;58358;50.936;0.246;2023-04-24T04:49:17;100239.70;;;6.07;86.59
64632;BME280;58358;50.936;0.246;2023-04-24T04:51:42;100241.36;;;6.36;83.86
64632;BME280;58358;50.936;0.246;2023-04-24T04:54:08;100245.30;;;6.05;85.42
64632;BME280;58358;50.936;0.246;2023-04-24T04:56:33;100248.19;;;5.64;85.88
64632;BME280;58358;50.936;0.246;2023-04-24T04:58:59;100246.10;;;6.18;84.34
64632;BME280;58358;50.936;0.246;2023-04-24T05:01:24;100249.37;;;6.15;85.22
64632;BME280;58358;50.936;0.246;2023-04-24T05:03:50;100249.37;;;6.14;84.54
64632;BME280;58358;50.936;0.246;2023-04-24T05:06:15;100255.67;;;5.80;85.33
64632;BME280;58358;50.936;0.246;2023-04-24T05:08:40;100257.00;;;6.22;84.28
64632;BME280;58358;50.936;0.246;2023-04-24T05:11:06;100260.96;;;5.79;86.09
64632;BME280;58358;50.936;0.246;2023-04-24T05:13:31;100263.18;;;4.58;89.61
64632;BME280;58358;50.936;0.246;2023-04-24T05:15:58;100264.15;;;5.58;89.57
64632;BME280;58358;50.936;0.246;2023-04-24T05:18:22;100266.89;;;6.01;87.37
64632;BME280;58358;50.936;0.246;2023-04-24T05:20:47;100270.48;;;5.76;87.88
64632;BME280;58358;50.936;0.246;2023-04-24T05:23:13;100272.36;;;6.23;87.38
64632;BME280;58358;50.936;0.246;2023-04-24T05:25:39;100276.00;;;5.71;88.79
64632;BME280;58358;50.936;0.246;2023-04-24T05:28:04;100279.17;;;6.29;86.05
64632;BME280;58358;50.936;0.246;2023-04-24T05:30:30;100280.06;;;6.76;85.98
64632;BME280;58358;50.936;0.246;2023-04-24T05:32:55;100280.51;;;6.57;85.67
64632;BME280;58358;50.936;0.246;2023-04-24T05:35:21;100280.44;;;6.31;85.72
64632;BME280;58358;50.936;0.246;2023-04-24T05:37:47;100287.19;;;6.15;86.45
64632;BME280;58358;50.936;0.246;2023-04-24T05:40:12;100287.32;;;5.71;88.09
64632;BME280;58358;50.936;0.246;2023-04-24T05:42:38;100291.58;;;5.24;88.62
64632;BME280;58358;50.936;0.246;2023-04-24T05:45:04;100297.95;;;5.77;87.21
64632;BME280;58358;50.936;0.246;2023-04-24T05:47:29;100303.74;;;6.39;86.61
64632;BME280;58358;50.936;0.246;2023-04-24T05:49:54;100307.40;;;6.44;88.53
64632;BME280;58358;50.936;0.246;2023-04-24T05:52:20;100312.61;;;4.87;93.76
64632;BME280;58358;50.936;0.246;2023-04-24T05:54:45;100313.96;;;7.24;85.53
64632;BME280;58358;50.936;0.246;2023-04-24T05:57:11;100313.78;;;5.73;86.31
64632;BME280;58358;50.936;0.246;2023-04-24T05:59:37;100314.07;;;6.58;86.58
64632;BME280;58358;50.936;0.246;2023-04-24T06:02:02;100311.10;;;7.18;84.17
64632;BME280;58358;50.936;0.246;2023-04-24T06:04:28;100313.33;;;7.61;82.36
64632;BME280;58358;50.936;0.246;2023-04-24T06:06:53;100320.22;;;6.57;86.50
64632;BME280;58358;50.936;0.246;2023-04-24T06:09:19;100318.85;;;6.23;85.05
64632;BME280;58358;50.936;0.246;2023-04-24T06:11:44;100317.32;;;6.03;87.22
64632;BME280;58358;50.936;0.246;2023-04-24T06:14:10;100317.63;;;5.19;89.24
64632;BME280;58358;50.936;0.246;2023-04-24T06:16:36;100316.98;;;6.39;86.52
64632;BME280;58358;50.936;0.246;2023-04-24T06:19:01;100316.08;;;6.90;84.94
64632;BME280;58358;50.936;0.246;2023-04-24T06:21:26;100316.06;;;6.76;85.50
64632;BME280;58358;50.936;0.246;2023-04-24T06:23:53;100315.95;;;6.11;88.18
64632;BME280;58358;50.936;0.246;2023-04-24T06:26:18;100319.82;;;6.05;90.52
64632;BME280;58358;50.936;0.246;2023-04-24T06:28:43;100326.38;;;6.52;87.85
64632;BME280;58358;50.936;0.246;2023-04-24T06:31:09;100329.97;;;6.46;87.14
64632;BME280;58358;50.936;0.246;2023-04-24T06:33:34;100330.55;;;5.79;90.68
64632;BME280;58358;50.936;0.246;2023-04-24T06:35:59;100335.17;;;6.31;89.60
64632;BME280;58358;50.936;0.246;2023-04-24T06:38:25;100340.75;;;6.49;89.35
64632;BME280;58358;50.936;0.246;2023-04-24T06:40:50;100344.22;;;6.67;88.20
64632;BME280;58358;50.936;0.246;2023-04-24T06:43:16;100346.04;;;6.57;87.10
64632;BME280;58358;50.936;0.246;2023-04-24T06:45:41;100348.29;;;4.71;94.06
64632;BME280;58358;50.936;0.246;2023-04-24T06:48:07;100346.19;;;5.98;91.49
64632;BME280;58358;50.936;0.246;2023-04-24T06:50:33;100347.23;;;6.71;87.63
64632;BME280;58358;50.936;0.246;2023-04-24T06:52:59;100345.86;;;5.41;92.29
64632;BME280;58358;50.936;0.246;2023-04-24T06:55:23;100348.60;;;6.43;90.65
64632;BME280;58358;50.936;0.246;2023-04-24T06:57:49;100344.71;;;5.96;90.07
64632;BME280;58358;50.936;0.246;2023-04-24T07:00:15;100339.59;;;6.93;88.02
64632;BME280;58358;50.936;0.246;2023-04-24T07:02:40;100340.67;;;6.12;89.72
64632;BME280;58358;50.936;0.246;2023-04-24T07:05:06;100340.95;;;7.00;87.12
64632;BME280;58358;50.936;0.246;2023-04-24T07:07:31;100345.16;;;7.21;86.42
64632;BME280;58358;50.936;0.246;2023-04-24T07:09:58;100350.65;;;6.75;89.31
64632;BME280;58358;50.936;0.246;2023-04-24T07:12:22;100347.26;;;7.54;86.00
64632;BME280;58358;50.936;0.246;2023-04-24T07:14:49;100346.28;;;7.57;85.14
64632;BME280;58358;50.936;0.246;2023-04-24T07:17:14;100345.57;;;7.55;84.16
64632;BME280;58358;50.936;0.246;2023-04-24T07:19:39;100348.55;;;7.49;87.23
64632;BME280;58358;50.936;0.246;2023-04-24T07:22:04;100347.19;;;6.77;88.53
64632;BME280;58358;50.936;0.246;2023-04-24T07:24:30;100351.36;;;6.86;88.13
64632;BME280;58358;50.936;0.246;2023-04-24T07:26:55;100352.53;;;6.16;87.33
64632;BME280;58358;50.936;0.246;2023-04-24T07:29:20;100354.11;;;6.36;92.07
64632;BME280;58358;50.936;0.246;2023-04-24T07:31:45;100351.20;;;7.15;85.38
64632;BME280;58358;50.936;0.246;2023-04-24T07:34:11;100353.16;;;7.13;85.33
64632;BME280;58358;50.936;0.246;2023-04-24T07:36:36;100355.36;;;7.05;85.50
64632;BME280;58358;50.936;0.246;2023-04-24T07:39:02;100359.73;;;6.76;87.81
64632;BME280;58358;50.936;0.246;2023-04-24T07:41:27;100361.56;;;6.81;86.36
64632;BME280;58358;50.936;0.246;2023-04-24T07:43:52;100361.51;;;8.05;83.52
64632;BME280;58358;50.936;0.246;2023-04-24T07:46:18;100363.51;;;7.88;81.58
64632;BME280;58358;50.936;0.246;2023-04-24T07:48:43;100367.18;;;8.31;78.68
64632;BME280;58358;50.936;0.246;2023-04-24T07:51:09;100370.74;;;7.15;81.30
64632;BME280;58358;50.936;0.246;2023-04-24T07:53:34;100373.34;;;7.71;83.46
64632;BME280;58358;50.936;0.246;2023-04-24T07:56:00;100374.01;;;8.42;77.80
64632;BME280;58358;50.936;0.246;2023-04-24T07:58:25;100369.53;;;7.72;80.16
64632;BME280;58358;50.936;0.246;2023-04-24T08:00:50;100374.43;;;8.23;77.40
64632;BME280;58358;50.936;0.246;2023-04-24T08:03:15;100381.49;;;8.72;75.68
64632;BME280;58358;50.936;0.246;2023-04-24T08:05:41;100378.85;;;8.17;78.52
64632;BME280;58358;50.936;0.246;2023-04-24T08:08:06;100385.38;;;7.81;79.71
64632;BME280;58358;50.936;0.246;2023-04-24T08:10:31;100385.79;;;8.83;74.77
64632;BME280;58358;50.936;0.246;2023-04-24T08:12:58;100380.01;;;6.42;78.58
64632;BME280;58358;50.936;0.246;2023-04-24T08:15:23;100380.38;;;7.65;79.65
64632;BME280;58358;50.936;0.246;2023-04-24T08:17:53;100385.56;;;7.79;77.17
64632;BME280;58358;50.936;0.246;2023-04-24T08:20:14;100390.80;;;8.71;74.98
64632;BME280;58358;50.936;0.246;2023-04-24T08:22:40;100389.24;;;7.22;77.62
64632;BME280;58358;50.936;0.246;2023-04-24T08:25:06;100386.92;;;7.75;78.31
64632;BME280;58358;50.936;0.246;2023-04-24T08:27:31;100388.36;;;8.51;75.12
64632;BME280;58358;50.936;0.246;2023-04-24T08:29:57;100385.84;;;8.02;74.47
64632;BME280;58358;50.936;0.246;2023-04-24T08:32:21;100390.83;;;8.45;74.65
64632;BME280;58358;50.936;0.246;2023-04-24T08:34:47;100391.18;;;8.01;74.01
64632;BME280;58358;50.936;0.246;2023-04-24T08:37:13;100387.07;;;7.37;75.69
64632;BME280;58358;50.936;0.246;2023-04-24T08:39:38;100387.42;;;7.94;75.26
64632;BME280;58358;50.936;0.246;2023-04-24T08:42:04;100389.44;;;7.99;77.12
64632;BME280;58358;50.936;0.246;2023-04-24T08:44:28;100391.58;;;7.92;77.11
64632;BME280;58358;50.936;0.246;2023-04-24T08:46:54;100395.89;;;8.05;76.64
64632;BME280;58358;50.936;0.246;2023-04-24T08:49:20;100396.31;;;8.51;75.23
64632;BME280;58358;50.936;0.246;2023-04-24T08:51:45;100397.07;;;9.02;72.07
64632;BME280;58358;50.936;0.246;2023-04-24T08:54:12;100398.09;;;9.28;69.51
64632;BME280;58358;50.936;0.246;2023-04-24T08:56:37;100396.77;;;8.41;70.05
64632;BME280;58358;50.936;0.246;2023-04-24T08:59:01;100405.72;;;8.34;72.11
64632;BME280;58358;50.936;0.246;2023-04-24T09:01:27;100406.16;;;8.67;70.08
64632;BME280;58358;50.936;0.246;2023-04-24T09:03:53;100408.97;;;8.04;72.53
64632;BME280;58358;50.936;0.246;2023-04-24T09:06:18;100402.86;;;8.34;74.38
64632;BME280;58358;50.936;0.246;2023-04-24T09:08:44;100403.73;;;9.09;71.02
64632;BME280;58358;50.936;0.246;2023-04-24T09:11:10;100408.74;;;8.34;71.53
64632;BME280;58358;50.936;0.246;2023-04-24T09:13:34;100408.58;;;9.59;67.96
64632;BME280;58358;50.936;0.246;2023-04-24T09:16:00;100404.04;;;9.36;65.79
64632;BME280;58358;50.936;0.246;2023-04-24T09:18:26;100401.71;;;9.05;69.24
64632;BME280;58358;50.936;0.246;2023-04-24T09:20:58;100403.76;;;9.08;68.20
64632;BME280;58358;50.936;0.246;2023-04-24T09:23:17;100400.86;;;8.35;70.68
64632;BME280;58358;50.936;0.246;2023-04-24T09:25:42;100402.50;;;8.76;70.61
64632;BME280;58358;50.936;0.246;2023-04-24T09:28:08;100409.66;;;8.49;72.84
64632;BME280;58358;50.936;0.246;2023-04-24T09:30:34;100410.44;;;9.73;69.16
64632;BME280;58358;50.936;0.246;2023-04-24T09:33:10;100408.39;;;9.45;67.59
64632;BME280;58358;50.936;0.246;2023-04-24T09:35:25;100412.95;;;9.42;70.10
64632;BME280;58358;50.936;0.246;2023-04-24T09:37:50;100408.56;;;9.06;69.95
64632;BME280;58358;50.936;0.246;2023-04-24T09:40:17;100409.70;;;9.76;66.23
64632;BME280;58358;50.936;0.246;2023-04-24T09:42:44;100413.31;;;8.79;67.24
64632;BME280;58358;50.936;0.246;2023-04-24T09:45:09;100414.46;;;9.99;66.18
64632;BME280;58358;50.936;0.246;2023-04-24T09:47:36;100415.70;;;10.49;63.40
64632;BME280;58358;50.936;0.246;2023-04-24T09:49:58;100414.99;;;10.20;64.57
64632;BME280;58358;50.936;0.246;2023-04-24T09:52:23;100422.52;;;10.46;64.31
64632;BME280;58358;50.936;0.246;2023-04-24T09:54:53;100429.12;;;9.45;64.05
64632;BME280;58358;50.936;0.246;2023-04-24T09:57:14;100430.98;;;9.24;64.03
64632;BME280;58358;50.936;0.246;2023-04-24T09:59:42;100433.77;;;9.75;64.22
64632;BME280;58358;50.936;0.246;2023-04-24T10:04:30;100437.02;;;11.47;59.51
64632;BME280;58358;50.936;0.246;2023-04-24T10:06:56;100436.86;;;12.09;58.27
64632;BME280;58358;50.936;0.246;2023-04-24T10:09:22;100437.79;;;11.74;56.59
64632;BME280;58358;50.936;0.246;2023-04-24T10:11:47;100438.91;;;10.75;59.82
64632;BME280;58358;50.936;0.246;2023-04-24T10:14:14;100439.68;;;12.16;56.67
64632;BME280;58358;50.936;0.246;2023-04-24T10:16:39;100440.06;;;12.07;56.99
64632;BME280;58358;50.936;0.246;2023-04-24T10:19:04;100443.40;;;12.05;57.86
64632;BME280;58358;50.936;0.246;2023-04-24T10:21:29;100439.52;;;11.86;56.17
64632;BME280;58358;50.936;0.246;2023-04-24T10:23:54;100437.82;;;10.90;55.74
64632;BME280;58358;50.936;0.246;2023-04-24T10:26:20;100441.31;;;11.35;56.55
64632;BME280;58358;50.936;0.246;2023-04-24T10:28:45;100446.83;;;11.32;57.18
64632;BME280;58358;50.936;0.246;2023-04-24T10:31:11;100450.72;;;11.02;56.76
64632;BME280;58358;50.936;0.246;2023-04-24T10:33:36;100451.77;;;10.91;57.61
64632;BME280;58358;50.936;0.246;2023-04-24T10:36:02;100454.20;;;10.20;58.71
64632;BME280;58358;50.936;0.246;2023-04-24T10:38:29;100448.57;;;10.28;62.35
64632;BME280;58358;50.936;0.246;2023-04-24T10:41:02;100448.88;;;10.50;60.99
64632;BME280;58358;50.936;0.246;2023-04-24T10:43:19;100447.90;;;10.58;58.41
64632;BME280;58358;50.936;0.246;2023-04-24T10:48:09;100444.77;;;11.92;56.22
64632;BME280;58358;50.936;0.246;2023-04-24T10:50:44;100445.18;;;11.51;58.03
64632;BME280;58358;50.936;0.246;2023-04-24T10:53:05;100446.75;;;9.05;68.07
64632;BME280;58358;50.936;0.246;2023-04-24T10:55:41;100445.77;;;10.20;67.68
64632;BME280;58358;50.936;0.246;2023-04-24T10:58:01;100446.82;;;9.99;70.38
64632;BME280;58358;50.936;0.246;2023-04-24T11:00:19;100448.37;;;10.06;69.76
64632;BME280;58358;50.936;0.246;2023-04-24T11:02:41;100445.97;;;10.21;68.86
64632;BME280;58358;50.936;0.246;2023-04-24T11:05:07;100444.98;;;10.35;70.08
64632;BME280;58358;50.936;0.246;2023-04-24T11:09:59;100447.55;;;11.18;66.35
64632;BME280;58358;50.936;0.246;2023-04-24T11:12:27;100452.26;;;9.74;68.76
64632;BME280;58358;50.936;0.246;2023-04-24T11:15:00;100452.13;;;10.31;71.04
64632;BME280;58358;50.936;0.246;2023-04-24T11:19:40;100461.44;;;9.90;70.11
64632;BME280;58358;50.936;0.246;2023-04-24T11:22:13;100465.73;;;8.56;75.13
64632;BME280;58358;50.936;0.246;2023-04-24T11:24:33;100464.68;;;8.68;77.68
64632;BME280;58358;50.936;0.246;2023-04-24T11:26:58;100473.68;;;7.43;84.14
64632;BME280;58358;50.936;0.246;2023-04-24T11:29:22;100477.00;;;8.54;81.70
64632;BME280;58358;50.936;0.246;2023-04-24T11:31:47;100473.78;;;7.25;84.29
64632;BME280;58358;50.936;0.246;2023-04-24T11:34:14;100472.75;;;7.74;82.57
64632;BME280;58358;50.936;0.246;2023-04-24T11:36:38;100473.00;;;8.41;81.18
64632;BME280;58358;50.936;0.246;2023-04-24T11:39:03;100474.20;;;9.26;79.91
64632;BME280;58358;50.936;0.246;2023-04-24T11:41:29;100477.15;;;8.73;79.92
64632;BME280;58358;50.936;0.246;2023-04-24T11:43:55;100478.02;;;9.15;77.26
64632;BME280;58358;50.936;0.246;2023-04-24T11:46:21;100478.19;;;9.31;76.93
64632;BME280;58358;50.936;0.246;2023-04-24T11:48:45;100483.60;;;9.65;75.90
64632;BME280;58358;50.936;0.246;2023-04-24T11:51:12;100482.01;;;9.94;76.29
64632;BME280;58358;50.936;0.246;2023-04-24T11:53:36;100476.84;;;10.22;75.57
64632;BME280;58358;50.936;0.246;2023-04-24T11:56:03;100473.84;;;8.48;76.10
64632;BME280;58358;50.936;0.246;2023-04-24T11:58:28;100475.13;;;9.53;75.90
64632;BME280;58358;50.936;0.246;2023-04-24T12:00:56;100471.58;;;9.66;72.52
64632;BME280;58358;50.936;0.246;2023-04-24T12:03:19;100471.20;;;8.74;77.93
64632;BME280;58358;50.936;0.246;2023-04-24T12:05:45;100466.15;;;9.00;77.79
64632;BME280;58358;50.936;0.246;2023-04-24T12:08:10;100475.52;;;9.50;72.49
64632;BME280;58358;50.936;0.246;2023-04-24T12:10:35;100473.39;;;9.39;71.92
64632;BME280;58358;50.936;0.246;2023-04-24T12:13:01;100472.65;;;9.15;70.65
64632;BME280;58358;50.936;0.246;2023-04-24T12:15:27;100474.16;;;9.11;73.42
64632;BME280;58358;50.936;0.246;2023-04-24T12:17:53;100474.81;;;9.05;73.51
64632;BME280;58358;50.936;0.246;2023-04-24T12:20:17;100475.22;;;9.22;74.79
64632;BME280;58358;50.936;0.246;2023-04-24T12:22:44;100477.61;;;9.62;72.35
64632;BME280;58358;50.936;0.246;2023-04-24T12:25:10;100480.43;;;9.76;73.33
64632;BME280;58358;50.936;0.246;2023-04-24T12:27:33;100477.78;;;10.55;70.58
64632;BME280;58358;50.936;0.246;2023-04-24T12:30:01;100478.97;;;9.64;71.53
64632;BME280;58358;50.936;0.246;2023-04-24T12:32:24;100470.40;;;9.39;72.27
64632;BME280;58358;50.936;0.246;2023-04-24T12:34:50;100466.67;;;9.12;72.59
64632;BME280;58358;50.936;0.246;2023-04-24T12:37:15;100471.20;;;9.65;71.79
64632;BME280;58358;50.936;0.246;2023-04-24T12:39:58;100468.43;;;9.68;71.02
64632;BME280;58358;50.936;0.246;2023-04-24T12:42:07;100466.13;;;10.35;68.43
64632;BME280;58358;50.936;0.246;2023-04-24T12:44:33;100457.34;;;11.47;63.44
64632;BME280;58358;50.936;0.246;2023-04-24T12:46:59;100460.82;;;11.43;64.04
64632;BME280;58358;50.936;0.246;2023-04-24T12:49:24;100458.45;;;12.39;61.03
64632;BME280;58358;50.936;0.246;2023-04-24T12:51:49;100459.53;;;12.41;61.32
64632;BME280;58358;50.936;0.246;2023-04-24T12:54:15;100457.93;;;11.92;61.62
64632;BME280;58358;50.936;0.246;2023-04-24T12:56:41;100455.26;;;10.84;62.07
64632;BME280;58358;50.936;0.246;2023-04-24T12:59:06;100452.41;;;10.97;63.95